createdAt,value
2023-05-19T00:00:08.099Z,16.09
2023-05-19T00:03:13.634Z,16.06
2023-05-19T00:06:16.231Z,16.07
2023-05-19T00:09:18.639Z,16.05
2023-05-19T00:12:21.225Z,16.08
2023-05-19T00:15:23.602Z,16.05
2023-05-19T00:18:26.573Z,16.07
2023-05-19T00:21:29.641Z,16.03
2023-05-19T00:24:32.205Z,16.08
2023-05-19T00:27:34.398Z,16.04
2023-05-19T00:30:36.562Z,15.99
2023-05-19T00:33:38.679Z,16.00
2023-05-19T00:36:40.889Z,15.98
2023-05-19T00:39:43.326Z,15.96
2023-05-19T00:42:45.624Z,15.98
2023-05-19T00:45:47.963Z,15.96
2023-05-19T00:48:50.125Z,15.90
2023-05-19T00:51:52.309Z,15.90
2023-05-19T00:54:55.460Z,15.87
2023-05-19T00:57:57.911Z,15.88
2023-05-19T01:01:04.558Z,15.87
2023-05-19T01:04:10.002Z,15.87
2023-05-19T01:07:12.542Z,15.86
2023-05-19T01:10:14.720Z,15.86
2023-05-19T01:13:17.087Z,15.86
2023-05-19T01:16:56.833Z,15.89
2023-05-19T01:20:14.930Z,15.88
2023-05-19T01:23:27.025Z,15.89
2023-05-19T01:26:58.351Z,15.86
2023-05-19T01:30:23.752Z,15.85
2023-05-19T01:33:27.344Z,15.82
2023-05-19T01:36:31.029Z,15.82
2023-05-19T01:39:33.476Z,15.83
2023-05-19T01:42:37.996Z,15.79
2023-05-19T01:45:40.746Z,15.78
2023-05-19T01:48:43.579Z,15.79
2023-05-19T01:51:45.863Z,15.79
2023-05-19T01:54:48.032Z,15.79
2023-05-19T01:58:07.472Z,15.80
2023-05-19T02:01:32.220Z,15.76
2023-05-19T02:04:45.205Z,15.76
2023-05-19T02:07:58.126Z,15.77
2023-05-19T02:11:08.014Z,15.76
2023-05-19T02:14:31.016Z,15.78
2023-05-19T02:17:36.992Z,15.78
2023-05-19T02:20:39.938Z,15.74
2023-05-19T02:23:42.524Z,15.76
2023-05-19T02:26:44.697Z,15.75
2023-05-19T02:29:46.896Z,15.75
2023-05-19T02:32:49.273Z,15.73
2023-05-19T02:35:51.473Z,15.67
2023-05-19T02:38:53.931Z,15.66
2023-05-19T02:41:56.543Z,15.63
2023-05-19T02:45:00.068Z,15.65
2023-05-19T02:48:02.318Z,15.67
2023-05-19T02:51:04.822Z,15.67
2023-05-19T02:54:07.080Z,15.67
2023-05-19T02:57:09.332Z,15.66
2023-05-19T03:00:12.106Z,15.63
2023-05-19T03:03:14.994Z,15.66
2023-05-19T03:06:18.046Z,15.64
2023-05-19T03:09:20.641Z,15.63
2023-05-19T03:12:22.825Z,15.66
2023-05-19T03:15:25.095Z,15.66
2023-05-19T03:18:27.599Z,15.65
2023-05-19T03:21:30.404Z,15.65
2023-05-19T03:24:32.766Z,15.69
2023-05-19T03:27:35.031Z,15.72
2023-05-19T03:30:37.357Z,15.71
2023-05-19T03:33:47.439Z,15.69
2023-05-19T03:36:50.360Z,15.70
2023-05-19T03:39:52.741Z,15.67
2023-05-19T03:42:54.935Z,15.69
2023-05-19T03:45:57.200Z,15.75
2023-05-19T03:49:19.664Z,15.78
2023-05-19T03:52:38.588Z,15.80
2023-05-19T03:55:56.665Z,15.81
2023-05-19T03:58:59.459Z,15.84
2023-05-19T04:02:01.719Z,15.83
2023-05-19T04:05:07.204Z,15.83
2023-05-19T04:08:09.479Z,15.84
2023-05-19T04:11:12.030Z,15.89
2023-05-19T04:14:14.244Z,15.92
2023-05-19T04:17:16.535Z,15.97
2023-05-19T04:20:18.726Z,16.03
2023-05-19T04:23:20.894Z,16.03
2023-05-19T04:26:24.979Z,16.07
2023-05-19T04:29:28.676Z,16.08
2023-05-19T04:32:31.115Z,16.15
2023-05-19T04:35:33.947Z,16.15
2023-05-19T04:38:37.681Z,16.18
2023-05-19T04:41:40.593Z,16.20
2023-05-19T04:44:43.793Z,16.26
2023-05-19T04:47:48.159Z,16.29
2023-05-19T04:50:51.994Z,16.33
2023-05-19T04:53:58.090Z,16.33
2023-05-19T04:57:01.268Z,16.41
2023-05-19T05:00:12.293Z,16.47
2023-05-19T05:03:26.388Z,16.49
2023-05-19T05:06:28.864Z,16.55
2023-05-19T05:09:31.180Z,16.61
2023-05-19T05:12:35.479Z,16.70
2023-05-19T05:15:37.919Z,16.70
2023-05-19T05:18:42.780Z,16.77
2023-05-19T05:21:47.274Z,16.79
2023-05-19T05:24:50.888Z,16.82
2023-05-19T05:27:54.201Z,16.84
2023-05-19T05:30:57.870Z,16.85
2023-05-19T05:34:00.499Z,16.89
2023-05-19T05:37:06.305Z,16.96
2023-05-19T05:40:10.130Z,17.00
2023-05-19T05:43:12.455Z,17.07
2023-05-19T05:46:21.369Z,17.12
2023-05-19T05:49:24.082Z,17.16
2023-05-19T05:52:30.143Z,17.19
2023-05-19T05:55:34.033Z,17.18
2023-05-19T05:58:37.845Z,17.25
2023-05-19T06:01:41.510Z,17.33
2023-05-19T06:04:45.142Z,17.39
2023-05-19T06:07:48.091Z,17.49
2023-05-19T06:10:55.475Z,17.62
2023-05-19T06:13:57.784Z,17.71
2023-05-19T06:17:23.040Z,17.73
2023-05-19T06:20:26.875Z,17.78
2023-05-19T06:23:31.741Z,17.78
2023-05-19T06:26:36.236Z,17.90
2023-05-19T06:29:39.412Z,17.98
2023-05-19T06:32:43.744Z,18.01
2023-05-19T06:35:46.119Z,18.05
2023-05-19T06:38:49.786Z,18.10
2023-05-19T06:41:52.005Z,18.14
2023-05-19T06:45:24.060Z,18.22
2023-05-19T06:48:27.161Z,18.23
2023-05-19T06:51:29.589Z,18.22
2023-05-19T06:54:32.536Z,18.21
2023-05-19T06:57:35.592Z,18.20
2023-05-19T07:00:38.623Z,18.27
2023-05-19T07:03:43.143Z,18.35
2023-05-19T07:07:01.408Z,18.45
2023-05-19T07:10:07.192Z,18.56
2023-05-19T07:13:09.703Z,18.71
2023-05-19T07:16:12.180Z,18.72
2023-05-19T07:19:15.380Z,18.90
2023-05-19T07:22:19.601Z,19.02
2023-05-19T07:25:22.136Z,19.10
2023-05-19T07:28:24.655Z,19.11
2023-05-19T07:31:26.944Z,19.16
2023-05-19T07:34:29.307Z,19.11
2023-05-19T07:37:34.523Z,19.06
2023-05-19T07:40:36.986Z,19.10
2023-05-19T07:43:39.797Z,19.10
2023-05-19T07:46:42.139Z,19.18
2023-05-19T07:49:44.442Z,19.22
2023-05-19T07:52:46.667Z,19.24
2023-05-19T07:55:49.324Z,19.20
2023-05-19T08:02:19.914Z,19.15
2023-05-19T08:05:33.057Z,19.22
2023-05-19T08:08:35.799Z,19.28
2023-05-19T08:11:38.313Z,19.43
2023-05-19T08:14:40.723Z,19.51
2023-05-19T08:17:45.149Z,19.57
2023-05-19T08:20:47.586Z,19.60
2023-05-19T08:23:51.268Z,19.67
2023-05-19T08:26:54.500Z,19.71
2023-05-19T08:29:57.399Z,19.81
2023-05-19T08:32:59.827Z,19.91
2023-05-19T08:36:05.164Z,19.94
2023-05-19T08:39:07.604Z,20.04
2023-05-19T08:42:10.072Z,20.06
2023-05-19T08:45:13.214Z,19.97
2023-05-19T08:48:19.397Z,19.94
2023-05-19T08:51:29.361Z,19.90
2023-05-19T08:54:47.420Z,19.82
2023-05-19T08:57:55.636Z,19.84
2023-05-19T09:01:01.359Z,19.75
2023-05-19T09:04:04.606Z,19.82
2023-05-19T09:07:10.909Z,20.01
2023-05-19T09:10:14.856Z,20.08
2023-05-19T09:13:19.689Z,20.18
2023-05-19T09:16:22.095Z,20.17
2023-05-19T09:19:29.879Z,20.33
2023-05-19T09:22:33.971Z,20.30
2023-05-19T09:25:36.451Z,20.35
2023-05-19T09:28:41.035Z,20.34
2023-05-19T09:31:54.529Z,20.39
2023-05-19T09:34:57.168Z,20.44
2023-05-19T09:38:00.672Z,20.38
2023-05-19T09:41:04.956Z,20.41
2023-05-19T09:44:07.513Z,20.35
2023-05-19T09:47:17.607Z,20.28
2023-05-19T09:50:30.298Z,20.32
2023-05-19T09:53:35.169Z,20.39
2023-05-19T09:56:46.053Z,20.26
2023-05-19T09:59:48.422Z,20.51
2023-05-19T10:03:00.608Z,20.57
2023-05-19T10:06:05.312Z,20.60
2023-05-19T10:09:08.345Z,20.55
2023-05-19T10:12:11.494Z,20.68
2023-05-19T10:15:15.408Z,20.67
2023-05-19T10:18:18.694Z,20.73
2023-05-19T10:21:21.567Z,20.75
2023-05-19T10:24:24.058Z,20.72
2023-05-19T10:27:28.333Z,20.76
2023-05-19T10:30:34.761Z,20.79
2023-05-19T10:34:15.069Z,20.83
2023-05-19T10:37:28.788Z,20.84
2023-05-19T10:40:37.291Z,20.94
2023-05-19T10:43:56.726Z,20.98
2023-05-19T10:46:59.434Z,21.03
2023-05-19T10:50:01.809Z,21.06
2023-05-19T10:53:04.304Z,21.05
2023-05-19T10:56:08.216Z,21.00
2023-05-19T10:59:35.405Z,21.10
2023-05-19T11:06:33.068Z,21.12
2023-05-19T11:09:40.804Z,21.19
2023-05-19T11:12:45.812Z,21.23
2023-05-19T11:15:51.187Z,21.25
2023-05-19T11:18:55.180Z,21.34
2023-05-19T11:22:07.744Z,21.36
2023-05-19T11:25:10.117Z,21.31
2023-05-19T11:28:13.926Z,21.25
2023-05-19T11:31:16.143Z,21.23
2023-05-19T11:34:18.509Z,21.20
2023-05-19T11:37:21.028Z,21.27
2023-05-19T11:40:23.316Z,21.29
2023-05-19T11:43:26.203Z,21.28
2023-05-19T11:46:28.803Z,21.30
2023-05-19T11:49:31.267Z,21.45
2023-05-19T11:52:33.647Z,21.51
2023-05-19T11:55:35.823Z,21.57
2023-05-19T11:58:38.259Z,21.63
2023-05-19T12:01:40.565Z,21.61
2023-05-19T12:04:43.183Z,21.75
2023-05-19T12:07:47.408Z,21.83
2023-05-19T12:10:50.823Z,21.83
2023-05-19T12:13:55.548Z,21.84
2023-05-19T12:16:58.242Z,21.83
2023-05-19T12:20:01.470Z,21.84
2023-05-19T12:23:04.015Z,21.93
2023-05-19T12:26:06.586Z,21.98
2023-05-19T12:29:08.882Z,22.01
2023-05-19T12:32:11.398Z,22.16
2023-05-19T12:35:19.713Z,22.20
2023-05-19T12:38:22.764Z,22.26
2023-05-19T12:41:27.282Z,22.39
2023-05-19T12:44:31.384Z,22.43
2023-05-19T12:47:35.266Z,22.50
2023-05-19T12:50:38.016Z,22.61
2023-05-19T12:53:40.335Z,22.61
2023-05-19T12:56:50.161Z,22.43
2023-05-19T12:59:52.352Z,22.35
2023-05-19T13:03:05.113Z,22.29
2023-05-19T13:06:08.203Z,22.20
2023-05-19T13:09:10.841Z,22.29
2023-05-19T13:12:13.072Z,22.21
2023-05-19T13:15:15.443Z,22.27
2023-05-19T13:18:18.095Z,22.44
2023-05-19T13:21:20.349Z,22.53
2023-05-19T13:24:22.571Z,22.58
2023-05-19T13:27:27.393Z,22.69
2023-05-19T13:30:29.576Z,22.78
2023-05-19T13:33:32.127Z,22.83
2023-05-19T13:36:35.031Z,22.96
2023-05-19T13:39:37.750Z,23.15
2023-05-19T13:42:40.823Z,23.31
2023-05-19T13:45:44.480Z,23.53
2023-05-19T13:48:46.784Z,23.75
2023-05-19T13:51:49.860Z,23.89
2023-05-19T13:54:54.893Z,24.01
2023-05-19T13:57:57.182Z,24.16
2023-05-19T14:01:00.101Z,24.28
2023-05-19T14:04:02.763Z,24.33
2023-05-19T14:07:09.636Z,24.28
2023-05-19T14:10:11.943Z,24.30
2023-05-19T14:13:30.783Z,24.31
2023-05-19T14:16:35.132Z,24.38
2023-05-19T14:19:38.060Z,24.18
2023-05-19T14:22:40.500Z,24.08
2023-05-19T14:25:43.162Z,23.93
2023-05-19T14:28:45.983Z,24.03
2023-05-19T14:31:48.271Z,24.01
2023-05-19T14:34:52.900Z,24.03
2023-05-19T14:37:55.321Z,24.01
2023-05-19T14:40:57.652Z,24.02
2023-05-19T14:43:59.824Z,24.02
2023-05-19T14:47:02.373Z,24.02
2023-05-19T14:50:05.080Z,23.97
2023-05-19T14:53:07.385Z,23.80
2023-05-19T14:56:09.715Z,23.64
2023-05-19T14:59:11.870Z,23.57
2023-05-19T15:02:14.081Z,23.55
2023-05-19T15:05:16.338Z,23.58
2023-05-19T15:08:18.594Z,23.66
2023-05-19T15:11:20.832Z,23.69
2023-05-19T15:14:23.889Z,23.76
2023-05-19T15:17:26.151Z,23.72
2023-05-19T15:20:29.617Z,23.69
2023-05-19T15:23:32.211Z,23.57
2023-05-19T15:26:34.384Z,23.48
2023-05-19T15:29:36.680Z,23.41
2023-05-19T15:32:38.943Z,23.31
2023-05-19T15:35:41.179Z,23.26
2023-05-19T15:38:43.419Z,23.19
2023-05-19T15:41:45.614Z,23.15
2023-05-19T15:44:47.813Z,23.06
2023-05-19T15:47:50.048Z,22.94
2023-05-19T15:50:52.296Z,22.93
2023-05-19T15:53:54.494Z,22.94
2023-05-19T15:56:56.786Z,22.90
2023-05-19T15:59:58.962Z,22.83
2023-05-19T16:03:01.183Z,22.80
2023-05-19T16:06:03.880Z,22.80
2023-05-19T16:09:06.122Z,22.75
2023-05-19T16:12:08.468Z,22.67
2023-05-19T16:15:10.878Z,22.62
2023-05-19T16:18:13.269Z,22.62
2023-05-19T16:21:15.523Z,22.56
2023-05-19T16:24:17.909Z,22.54
2023-05-19T16:27:20.115Z,22.52
2023-05-19T16:30:23.095Z,22.49
2023-05-19T16:33:26.338Z,22.44
2023-05-19T16:36:28.536Z,22.40
2023-05-19T16:39:30.751Z,22.37
2023-05-19T16:42:35.920Z,22.35
2023-05-19T16:45:38.264Z,22.31
2023-05-19T16:48:40.786Z,22.30
2023-05-19T16:51:46.202Z,22.22
2023-05-19T16:54:49.836Z,22.21
2023-05-19T16:57:52.077Z,22.19
2023-05-19T17:00:54.603Z,22.14
2023-05-19T17:03:57.037Z,22.08
2023-05-19T17:06:59.290Z,22.05
2023-05-19T17:10:01.536Z,22.03
2023-05-19T17:13:03.755Z,21.98
2023-05-19T17:16:06.326Z,21.94
2023-05-19T17:19:08.719Z,21.90
2023-05-19T17:22:10.920Z,21.85
2023-05-19T17:25:13.212Z,21.86
2023-05-19T17:28:15.384Z,21.82
2023-05-19T17:31:17.660Z,21.79
2023-05-19T17:34:19.932Z,21.75
2023-05-19T17:37:25.601Z,21.70
2023-05-19T17:40:28.506Z,21.64
2023-05-19T17:43:30.777Z,21.59
2023-05-19T17:46:36.148Z,21.57
2023-05-19T17:49:40.196Z,21.52
2023-05-19T17:52:42.620Z,21.50
2023-05-19T17:55:51.990Z,21.43
2023-05-19T17:58:54.723Z,21.38
2023-05-19T18:01:57.246Z,21.37
2023-05-19T18:05:00.215Z,21.36
2023-05-19T18:08:06.938Z,21.32
2023-05-19T18:11:13.324Z,21.32
2023-05-19T18:14:15.605Z,21.34
2023-05-19T18:17:17.897Z,21.25
2023-05-19T18:20:20.232Z,21.26
2023-05-19T18:23:22.554Z,21.20
2023-05-19T18:26:24.848Z,21.21
2023-05-19T18:29:27.068Z,21.15
2023-05-19T18:32:29.362Z,21.10
2023-05-19T18:35:31.649Z,21.05
2023-05-19T18:38:33.819Z,20.98
2023-05-19T18:41:37.593Z,20.95
2023-05-19T18:44:39.858Z,20.89
2023-05-19T18:47:42.259Z,20.82
2023-05-19T18:50:44.900Z,20.76
2023-05-19T18:53:50.078Z,20.71
2023-05-19T18:56:52.371Z,20.69
2023-05-19T18:59:54.637Z,20.64
2023-05-19T19:02:56.899Z,20.59
2023-05-19T19:05:59.878Z,20.55
2023-05-19T19:09:02.081Z,20.51
2023-05-19T19:12:07.218Z,20.48
2023-05-19T19:15:10.070Z,20.45
2023-05-19T19:18:12.695Z,20.36
2023-05-19T19:21:14.917Z,20.33
2023-05-19T19:24:17.325Z,20.24
2023-05-19T19:27:21.223Z,20.22
2023-05-19T19:30:24.488Z,20.20
2023-05-19T19:33:26.767Z,20.15
2023-05-19T19:36:29.376Z,20.09
2023-05-19T19:39:31.548Z,20.01
2023-05-19T19:42:34.057Z,20.00
2023-05-19T19:45:39.058Z,19.95
2023-05-19T19:48:41.310Z,19.89
2023-05-19T19:51:43.541Z,19.85
2023-05-19T19:54:45.790Z,19.83
2023-05-19T19:57:49.529Z,19.82
2023-05-19T20:00:58.395Z,19.85
2023-05-19T20:04:00.750Z,19.81
2023-05-19T20:07:03.391Z,19.82
2023-05-19T20:10:06.172Z,19.80
2023-05-19T20:13:08.630Z,19.78
2023-05-19T20:16:11.506Z,19.77
2023-05-19T20:19:13.923Z,19.79
2023-05-19T20:22:16.235Z,19.82
2023-05-19T20:25:18.499Z,19.82
2023-05-19T20:28:23.092Z,19.82
2023-05-19T20:31:26.614Z,19.84
2023-05-19T20:34:28.817Z,19.83
2023-05-19T20:37:31.050Z,19.84
2023-05-19T20:40:33.394Z,19.85
2023-05-19T20:43:35.756Z,19.82
2023-05-19T20:46:38.003Z,19.83
2023-05-19T20:49:40.162Z,19.82
2023-05-19T20:52:42.377Z,19.84
2023-05-19T20:55:45.542Z,19.85
2023-05-19T20:58:47.871Z,19.84
2023-05-19T21:01:50.067Z,19.78
2023-05-19T21:04:52.340Z,19.79
2023-05-19T21:07:54.597Z,19.76
2023-05-19T21:10:56.856Z,19.75
2023-05-19T21:14:01.422Z,19.72
2023-05-19T21:17:03.889Z,19.70
2023-05-19T21:20:06.631Z,19.72
2023-05-19T21:23:08.887Z,19.72
2023-05-19T21:26:11.045Z,19.70
2023-05-19T21:29:13.581Z,19.66
2023-05-19T21:32:15.971Z,19.65
2023-05-19T21:35:18.152Z,19.58
2023-05-19T21:38:24.019Z,19.54
2023-05-19T21:41:26.626Z,19.55
2023-05-19T21:44:29.176Z,19.55
2023-05-19T21:47:31.435Z,19.52
2023-05-19T21:50:37.474Z,19.50
2023-05-19T21:53:39.621Z,19.47
2023-05-19T21:56:41.805Z,19.46
2023-05-19T21:59:44.943Z,19.49
2023-05-19T22:02:47.233Z,19.45
2023-05-19T22:05:50.371Z,19.43
2023-05-19T22:08:52.540Z,19.41
2023-05-19T22:11:54.776Z,19.37
2023-05-19T22:14:57.038Z,19.34
2023-05-19T22:17:59.383Z,19.33
2023-05-19T22:21:01.727Z,19.32
2023-05-19T22:24:04.625Z,19.33
2023-05-19T22:27:07.844Z,19.31
2023-05-19T22:30:10.198Z,19.31
2023-05-19T22:33:14.723Z,19.28
2023-05-19T22:36:17.068Z,19.27
2023-05-19T22:39:19.263Z,19.18
2023-05-19T22:42:21.446Z,19.15
2023-05-19T22:45:23.667Z,19.17
2023-05-19T22:48:26.088Z,19.19
2023-05-19T22:51:28.252Z,19.12
2023-05-19T22:54:30.958Z,19.16
2023-05-19T22:57:33.180Z,19.15
2023-05-19T23:00:35.634Z,19.15
2023-05-19T23:03:37.804Z,19.13
2023-05-19T23:06:40.026Z,19.13
2023-05-19T23:09:42.280Z,19.12
2023-05-19T23:12:44.497Z,19.11
2023-05-19T23:15:46.728Z,19.10
2023-05-19T23:18:48.969Z,19.05
2023-05-19T23:21:51.235Z,19.02
2023-05-19T23:24:53.467Z,19.01
2023-05-19T23:27:55.748Z,18.99
2023-05-19T23:30:58.118Z,18.98
2023-05-19T23:34:00.582Z,18.92
2023-05-19T23:37:02.878Z,18.89
2023-05-19T23:40:08.348Z,18.87
2023-05-19T23:43:10.884Z,18.90
2023-05-19T23:46:13.160Z,18.90
2023-05-19T23:49:15.666Z,18.90
2023-05-19T23:52:17.903Z,18.90
2023-05-19T23:55:20.231Z,18.87
2023-05-19T23:58:23.378Z,18.81
